AFL1125 URSS-UUEE
Flight info
| Callsign | AFL1125 |
|---|---|
| Flight time | N/A |
| Altitude | 33000 |
| Route | IRGID1D IRGID A944 BEMES R227 KZ DCT MOMER/K0826F320 DCT GOLMA/K0830F340 N50 OLOPI OLOPI3W |
| Aircraft | A321/M-SDE3FGHIRWY/LB1 |
Departure
| Time | 2026-05-04 17:53 |
|---|---|
| Airport | Sochi International Airport (URSS) |
Arrival
| Time | N/A |
|---|---|
| Airport | Sheremetyevo International Airport (UUEE) |
| Time | Latitude | Longitude | Altitude | Speed | Heading |
|---|---|---|---|---|---|
| 2026-05-04 17:00 | 43.44766 | 39.94252 | 75 ft | 0 kts | 335° |
| 2026-05-04 17:42 | 43.44765 | 39.94253 | 67 ft | 1 kts | 335° |
| 2026-05-04 17:43 | 43.44743 | 39.94267 | 72 ft | 4 kts | 335° |
| 2026-05-04 17:43 | 43.44718 | 39.94283 | 65 ft | 4 kts | 335° |
| 2026-05-04 17:43 | 43.44698 | 39.94295 | 74 ft | 4 kts | 346° |
| 2026-05-04 17:43 | 43.44672 | 39.94297 | 71 ft | 4 kts | 20° |
| 2026-05-04 17:44 | 43.44652 | 39.94278 | 72 ft | 4 kts | 56° |
| 2026-05-04 17:44 | 43.44643 | 39.94257 | 71 ft | 0 kts | 65° |
| 2026-05-04 17:47 | 43.44645 | 39.94262 | 74 ft | 4 kts | 65° |
| 2026-05-04 17:47 | 43.44668 | 39.94330 | 67 ft | 10 kts | 65° |
| 2026-05-04 17:48 | 43.44703 | 39.94434 | 67 ft | 13 kts | 65° |
| 2026-05-04 17:48 | 43.44740 | 39.94542 | 68 ft | 12 kts | 65° |
| 2026-05-04 17:48 | 43.44786 | 39.94676 | 75 ft | 19 kts | 64° |
| 2026-05-04 17:48 | 43.44839 | 39.94831 | 70 ft | 17 kts | 64° |
| 2026-05-04 17:49 | 43.44884 | 39.94962 | 74 ft | 13 kts | 64° |
| 2026-05-04 17:49 | 43.44918 | 39.95060 | 83 ft | 10 kts | 64° |
| 2026-05-04 17:49 | 43.44941 | 39.95127 | 86 ft | 6 kts | 64° |
| 2026-05-04 17:49 | 43.44960 | 39.95182 | 88 ft | 8 kts | 64° |
| 2026-05-04 17:50 | 43.44990 | 39.95264 | 90 ft | 9 kts | 65° |
| 2026-05-04 17:50 | 43.44992 | 39.95318 | 91 ft | 1 kts | 107° |
| 2026-05-04 17:50 | 43.44992 | 39.95320 | 87 ft | 0 kts | 108° |
| 2026-05-04 17:52 | 43.44974 | 39.95353 | 88 ft | 9 kts | 139° |
| 2026-05-04 17:52 | 43.44925 | 39.95378 | 89 ft | 7 kts | 177° |
| 2026-05-04 17:52 | 43.44889 | 39.95334 | 87 ft | 7 kts | 241° |
| 2026-05-04 17:52 | 43.44883 | 39.95318 | 85 ft | 16 kts | 242° |
| 2026-05-04 17:53 | 43.44716 | 39.94837 | 67 ft | 92 kts | 245° |
| 2026-05-04 17:53 | 43.44357 | 39.93786 | 57 ft | 149 kts | 245° |
| 2026-05-04 17:53 | 43.43849 | 39.92341 | 305 ft | 174 kts | 242° |
| 2026-05-04 17:53 | 43.43330 | 39.90834 | 941 ft | 174 kts | 247° |
| 2026-05-04 17:54 | 43.43016 | 39.89215 | 1349 ft | 179 kts | 261° |
| 2026-05-04 17:54 | 43.42970 | 39.87441 | 1498 ft | 198 kts | 274° |
| 2026-05-04 17:54 | 43.43263 | 39.85509 | 1630 ft | 216 kts | 289° |
| 2026-05-04 17:54 | 43.43963 | 39.83593 | 1749 ft | 234 kts | 306° |
| 2026-05-04 17:55 | 43.44999 | 39.81753 | 1927 ft | 254 kts | 309° |
| 2026-05-04 17:55 | 43.46107 | 39.79802 | 2435 ft | 261 kts | 308° |
| 2026-05-04 17:55 | 43.47224 | 39.77818 | 3109 ft | 263 kts | 308° |
| 2026-05-04 17:55 | 43.48349 | 39.75819 | 3810 ft | 264 kts | 308° |
| 2026-05-04 17:56 | 43.49475 | 39.73815 | 4480 ft | 266 kts | 308° |
| 2026-05-04 17:56 | 43.50609 | 39.71796 | 5131 ft | 267 kts | 308° |
| 2026-05-04 17:56 | 43.51749 | 39.69762 | 5756 ft | 269 kts | 308° |
| 2026-05-04 17:56 | 43.52883 | 39.67737 | 6364 ft | 273 kts | 307° |
| 2026-05-04 17:57 | 43.54040 | 39.65675 | 6977 ft | 273 kts | 308° |
| 2026-05-04 17:57 | 43.55216 | 39.63584 | 7549 ft | 279 kts | 307° |
| 2026-05-04 17:57 | 43.56402 | 39.61462 | 8158 ft | 280 kts | 307° |
| 2026-05-04 17:57 | 43.57598 | 39.59325 | 8728 ft | 282 kts | 307° |
| 2026-05-04 17:58 | 43.58801 | 39.57173 | 9277 ft | 285 kts | 307° |
| 2026-05-04 17:58 | 43.60069 | 39.55051 | 9783 ft | 286 kts | 316° |
| 2026-05-04 17:58 | 43.61679 | 39.53380 | 10174 ft | 298 kts | 332° |
| 2026-05-04 17:58 | 43.63684 | 39.52406 | 10298 ft | 315 kts | 351° |
| 2026-05-04 17:59 | 43.65902 | 39.52261 | 10444 ft | 333 kts | 5° |
| 2026-05-04 17:59 | 43.68191 | 39.53027 | 10557 ft | 347 kts | 22° |
| 2026-05-04 17:59 | 43.72018 | 39.57214 | 11233 ft | 361 kts | 54° |
| 2026-05-04 18:00 | 43.73226 | 39.60259 | 11702 ft | 362 kts | 68° |
| 2026-05-04 18:00 | 43.73895 | 39.63614 | 12143 ft | 367 kts | 78° |
| 2026-05-04 18:00 | 43.74416 | 39.67077 | 12685 ft | 369 kts | 78° |
| 2026-05-04 18:00 | 43.74937 | 39.70555 | 13216 ft | 369 kts | 78° |
| 2026-05-04 18:01 | 43.75455 | 39.73990 | 13698 ft | 371 kts | 77° |
| 2026-05-04 18:01 | 43.75984 | 39.77482 | 14197 ft | 371 kts | 77° |
| 2026-05-04 18:01 | 43.76514 | 39.80980 | 14676 ft | 372 kts | 78° |
| 2026-05-04 18:02 | 43.77561 | 39.88003 | 15533 ft | 374 kts | 79° |
| 2026-05-04 18:02 | 43.78085 | 39.91541 | 15937 ft | 376 kts | 79° |
| 2026-05-04 18:02 | 43.78585 | 39.95105 | 16324 ft | 378 kts | 80° |
| 2026-05-04 18:02 | 43.79056 | 39.98696 | 16689 ft | 380 kts | 81° |
| 2026-05-04 18:03 | 43.79514 | 40.02305 | 17071 ft | 381 kts | 82° |
| 2026-05-04 18:03 | 43.79962 | 40.05868 | 17444 ft | 382 kts | 83° |
| 2026-05-04 18:03 | 43.80418 | 40.09507 | 17767 ft | 385 kts | 83° |
| 2026-05-04 18:03 | 43.80879 | 40.13163 | 18112 ft | 386 kts | 83° |
| 2026-05-04 18:04 | 43.81348 | 40.16829 | 18443 ft | 388 kts | 83° |
| 2026-05-04 18:04 | 43.81819 | 40.20509 | 18776 ft | 389 kts | 83° |
| 2026-05-04 18:04 | 43.82761 | 40.27913 | 19435 ft | 391 kts | 83° |
| 2026-05-04 18:05 | 43.83229 | 40.31634 | 19762 ft | 393 kts | 82° |
| 2026-05-04 18:05 | 43.83693 | 40.35314 | 20041 ft | 394 kts | 82° |
| 2026-05-04 18:05 | 43.84166 | 40.39056 | 20339 ft | 395 kts | 82° |
| 2026-05-04 18:05 | 43.84638 | 40.42808 | 20651 ft | 396 kts | 82° |
| 2026-05-04 18:06 | 43.85586 | 40.50356 | 21266 ft | 399 kts | 82° |
| 2026-05-04 18:06 | 43.86061 | 40.54151 | 21560 ft | 400 kts | 82° |
| 2026-05-04 18:06 | 43.86536 | 40.57961 | 21838 ft | 402 kts | 82° |
| 2026-05-04 18:07 | 43.87006 | 40.61780 | 22132 ft | 403 kts | 82° |
| 2026-05-04 18:07 | 43.87474 | 40.65617 | 22414 ft | 404 kts | 82° |
| 2026-05-04 18:07 | 43.87947 | 40.69470 | 22698 ft | 406 kts | 82° |
| 2026-05-04 18:07 | 43.88246 | 40.73358 | 22966 ft | 406 kts | 88° |
| 2026-05-04 18:08 | 43.88412 | 40.77223 | 23224 ft | 408 kts | 88° |
| 2026-05-04 18:08 | 43.88583 | 40.81149 | 23489 ft | 409 kts | 88° |
| 2026-05-04 18:08 | 43.88755 | 40.85089 | 23739 ft | 410 kts | 88° |
| 2026-05-04 18:08 | 43.88928 | 40.89041 | 23990 ft | 412 kts | 88° |
| 2026-05-04 18:09 | 43.89285 | 40.96999 | 24453 ft | 415 kts | 88° |
| 2026-05-04 18:09 | 43.89630 | 41.05034 | 24902 ft | 419 kts | 89° |
| 2026-05-04 18:10 | 43.89799 | 41.09073 | 25129 ft | 421 kts | 89° |
| 2026-05-04 18:10 | 43.89965 | 41.13131 | 25334 ft | 423 kts | 89° |
| 2026-05-04 18:10 | 43.90133 | 41.17211 | 25553 ft | 425 kts | 89° |
| 2026-05-04 18:10 | 43.90299 | 41.21248 | 25751 ft | 426 kts | 89° |
| 2026-05-04 18:11 | 43.90467 | 41.25366 | 25949 ft | 428 kts | 89° |
| 2026-05-04 18:11 | 43.90631 | 41.29497 | 26137 ft | 430 kts | 89° |
| 2026-05-04 18:11 | 43.90797 | 41.33649 | 26321 ft | 432 kts | 89° |
| 2026-05-04 18:11 | 43.90962 | 41.37816 | 26515 ft | 434 kts | 90° |
| 2026-05-04 18:12 | 43.91126 | 41.41997 | 26699 ft | 436 kts | 90° |
| 2026-05-04 18:12 | 43.91289 | 41.46205 | 26888 ft | 438 kts | 90° |
| 2026-05-04 18:12 | 43.91447 | 41.50431 | 27073 ft | 439 kts | 90° |
| 2026-05-04 18:12 | 43.91600 | 41.54612 | 27250 ft | 441 kts | 90° |
| 2026-05-04 18:13 | 43.91758 | 41.58867 | 27413 ft | 442 kts | 90° |
| 2026-05-04 18:13 | 43.91912 | 41.63132 | 27586 ft | 444 kts | 90° |
| 2026-05-04 18:13 | 43.92210 | 41.71722 | 27912 ft | 447 kts | 90° |
| 2026-05-04 18:14 | 43.92360 | 41.76033 | 28064 ft | 449 kts | 91° |
| 2026-05-04 18:14 | 43.92507 | 41.80365 | 28227 ft | 450 kts | 91° |
| 2026-05-04 18:14 | 43.92651 | 41.84701 | 28374 ft | 451 kts | 91° |
| 2026-05-04 18:15 | 43.92939 | 41.93354 | 28667 ft | 453 kts | 91° |
| 2026-05-04 18:15 | 43.93229 | 42.02060 | 29052 ft | 451 kts | 91° |
| 2026-05-04 18:15 | 43.93369 | 42.06406 | 29232 ft | 451 kts | 91° |
| 2026-05-04 18:16 | 43.93506 | 42.10750 | 29419 ft | 451 kts | 91° |
| 2026-05-04 18:16 | 43.93642 | 42.15093 | 29593 ft | 450 kts | 91° |
| 2026-05-04 18:16 | 43.93777 | 42.19429 | 29776 ft | 449 kts | 92° |
| 2026-05-04 18:17 | 43.94036 | 42.28085 | 30106 ft | 449 kts | 92° |
| 2026-05-04 18:17 | 43.94164 | 42.32409 | 30267 ft | 449 kts | 92° |
| 2026-05-04 18:17 | 43.94409 | 42.41002 | 30606 ft | 448 kts | 92° |
| 2026-05-04 18:18 | 43.94531 | 42.45325 | 30789 ft | 448 kts | 92° |
| 2026-05-04 18:18 | 43.94651 | 42.49645 | 30961 ft | 448 kts | 92° |
| 2026-05-04 18:18 | 43.94771 | 42.53962 | 31129 ft | 448 kts | 92° |
| 2026-05-04 18:18 | 43.94888 | 42.58277 | 31287 ft | 447 kts | 92° |
| 2026-05-04 18:19 | 43.95080 | 42.66909 | 31597 ft | 447 kts | 93° |
| 2026-05-04 18:19 | 43.95116 | 42.71216 | 31761 ft | 447 kts | 94° |
| 2026-05-04 18:19 | 43.95124 | 42.75522 | 31921 ft | 446 kts | 94° |
| 2026-05-04 18:20 | 43.95124 | 42.79830 | 32062 ft | 446 kts | 94° |
| 2026-05-04 18:20 | 43.95124 | 42.84085 | 32187 ft | 447 kts | 94° |
| 2026-05-04 18:20 | 43.95126 | 42.88396 | 32325 ft | 447 kts | 94° |
| 2026-05-04 18:20 | 43.95136 | 42.92709 | 32459 ft | 447 kts | 94° |
| 2026-05-04 18:21 | 43.95151 | 42.97032 | 32588 ft | 448 kts | 93° |
| 2026-05-04 18:21 | 43.95166 | 43.01347 | 32705 ft | 448 kts | 93° |
| 2026-05-04 18:21 | 43.95180 | 43.05665 | 32870 ft | 447 kts | 93° |
| 2026-05-04 18:21 | 43.95193 | 43.09988 | 32950 ft | 447 kts | 94° |
| 2026-05-04 18:22 | 43.95206 | 43.18599 | 32962 ft | 446 kts | 94° |
| 2026-05-04 18:22 | 43.95207 | 43.27159 | 32962 ft | 447 kts | 94° |
| 2026-05-04 18:23 | 43.95202 | 43.35787 | 32961 ft | 448 kts | 94° |
| 2026-05-04 18:23 | 43.95195 | 43.44445 | 32952 ft | 449 kts | 94° |
| 2026-05-04 18:24 | 43.95178 | 43.53109 | 32951 ft | 449 kts | 94° |
| 2026-05-04 18:24 | 43.95156 | 43.61719 | 32945 ft | 450 kts | 94° |
| 2026-05-04 18:25 | 43.95131 | 43.70404 | 32941 ft | 450 kts | 94° |
| 2026-05-04 18:25 | 43.95093 | 43.79091 | 32941 ft | 451 kts | 94° |
| 2026-05-04 18:26 | 43.95052 | 43.87790 | 32938 ft | 451 kts | 94° |
| 2026-05-04 18:26 | 43.95013 | 43.96509 | 32939 ft | 452 kts | 94° |
| 2026-05-04 18:27 | 43.94957 | 44.05158 | 32942 ft | 451 kts | 94° |
| 2026-05-04 18:27 | 43.94893 | 44.13867 | 32944 ft | 451 kts | 94° |
| 2026-05-04 18:28 | 43.94823 | 44.22565 | 32947 ft | 451 kts | 94° |
| 2026-05-04 18:28 | 43.94749 | 44.31270 | 32945 ft | 451 kts | 94° |
| 2026-05-04 18:29 | 43.94668 | 44.39920 | 32944 ft | 451 kts | 94° |
| 2026-05-04 18:29 | 43.94585 | 44.48630 | 32944 ft | 452 kts | 94° |
| 2026-05-04 18:30 | 43.94443 | 44.61706 | 32941 ft | 452 kts | 94° |
| 2026-05-04 18:31 | 43.94358 | 44.68956 | 32943 ft | 452 kts | 95° |
| 2026-05-04 18:31 | 43.94233 | 44.79105 | 32942 ft | 453 kts | 95° |
| 2026-05-04 18:32 | 43.94111 | 44.87864 | 32943 ft | 454 kts | 95° |
| 2026-05-04 18:32 | 43.93983 | 44.96636 | 32942 ft | 455 kts | 95° |
| 2026-05-04 18:33 | 43.93877 | 45.03944 | 32940 ft | 456 kts | 95° |
| 2026-05-04 18:33 | 43.93728 | 45.14189 | 32942 ft | 458 kts | 95° |
| 2026-05-04 18:34 | 43.93607 | 45.21598 | 32944 ft | 459 kts | 95° |
| 2026-05-04 18:34 | 43.93422 | 45.31893 | 32941 ft | 460 kts | 95° |
| 2026-05-04 18:35 | 43.93287 | 45.39270 | 32944 ft | 461 kts | 95° |
| 2026-05-04 18:35 | 43.93118 | 45.48169 | 32940 ft | 462 kts | 95° |
| 2026-05-04 18:36 | 43.92944 | 45.57090 | 32939 ft | 463 kts | 95° |
| 2026-05-04 18:36 | 43.92763 | 45.66032 | 32939 ft | 465 kts | 95° |
| 2026-05-04 18:37 | 43.92578 | 45.74931 | 32940 ft | 465 kts | 95° |
| 2026-05-04 18:37 | 43.92379 | 45.83906 | 32938 ft | 465 kts | 95° |
| 2026-05-04 18:38 | 43.91915 | 45.92832 | 32937 ft | 462 kts | 102° |
| 2026-05-04 18:38 | 43.90987 | 46.01658 | 32934 ft | 463 kts | 102° |
| 2026-05-04 18:39 | 43.90072 | 46.10431 | 32938 ft | 463 kts | 102° |
| 2026-05-04 18:39 | 43.89145 | 46.19266 | 32940 ft | 463 kts | 102° |
| 2026-05-04 18:40 | 43.88206 | 46.28103 | 32943 ft | 463 kts | 102° |
| 2026-05-04 18:40 | 43.87249 | 46.36936 | 32944 ft | 463 kts | 102° |
| 2026-05-04 18:41 | 43.86288 | 46.45757 | 32948 ft | 463 kts | 102° |
| 2026-05-04 18:41 | 43.85329 | 46.54521 | 32951 ft | 463 kts | 102° |
| 2026-05-04 18:42 | 43.84644 | 46.63405 | 32948 ft | 468 kts | 90° |
| 2026-05-04 18:42 | 43.85061 | 46.67893 | 32945 ft | 473 kts | 79° |
| 2026-05-04 18:42 | 43.86112 | 46.72216 | 32930 ft | 475 kts | 66° |
| 2026-05-04 18:42 | 43.87752 | 46.76193 | 32943 ft | 478 kts | 55° |
| 2026-05-04 18:43 | 43.89920 | 46.79692 | 32944 ft | 480 kts | 44° |
| 2026-05-04 18:43 | 43.94847 | 46.86069 | 32945 ft | 488 kts | 43° |
| 2026-05-04 18:44 | 43.99814 | 46.92491 | 32944 ft | 494 kts | 43° |
| 2026-05-04 18:44 | 44.04859 | 46.99046 | 32943 ft | 498 kts | 43° |
| 2026-05-04 18:45 | 44.09940 | 47.05655 | 32943 ft | 502 kts | 43° |
| 2026-05-04 18:45 | 44.15054 | 47.12328 | 32944 ft | 505 kts | 43° |
| 2026-05-04 18:46 | 44.20152 | 47.18995 | 32944 ft | 507 kts | 43° |
| 2026-05-04 18:46 | 44.25302 | 47.25750 | 32943 ft | 508 kts | 43° |
| 2026-05-04 18:47 | 44.30447 | 47.32524 | 32943 ft | 509 kts | 43° |
| 2026-05-04 18:47 | 44.35597 | 47.39311 | 32953 ft | 509 kts | 43° |
| 2026-05-04 18:48 | 44.40711 | 47.46059 | 32953 ft | 509 kts | 43° |
| 2026-05-04 18:48 | 44.45990 | 47.52650 | 32952 ft | 508 kts | 33° |
| 2026-05-04 18:48 | 44.49060 | 47.55077 | 32954 ft | 507 kts | 22° |
| 2026-05-04 18:49 | 44.52392 | 47.56649 | 32953 ft | 504 kts | 10° |
| 2026-05-04 18:49 | 44.55848 | 47.57310 | 32952 ft | 500 kts | 359° |
| 2026-05-04 18:49 | 44.59304 | 47.57047 | 32951 ft | 496 kts | 348° |
| 2026-05-04 18:50 | 44.66004 | 47.55122 | 32952 ft | 495 kts | 345° |
| 2026-05-04 18:50 | 44.72746 | 47.53130 | 32953 ft | 495 kts | 345° |
| 2026-05-04 18:51 | 44.79498 | 47.51138 | 32950 ft | 496 kts | 345° |
| 2026-05-04 18:51 | 44.86250 | 47.49137 | 32952 ft | 496 kts | 346° |
| 2026-05-04 18:52 | 44.92997 | 47.47127 | 32951 ft | 495 kts | 346° |
| 2026-05-04 18:52 | 44.99690 | 47.45119 | 32953 ft | 495 kts | 346° |
| 2026-05-04 18:53 | 45.06437 | 47.43083 | 32953 ft | 496 kts | 346° |
| 2026-05-04 18:53 | 45.13192 | 47.41069 | 32951 ft | 496 kts | 346° |
| 2026-05-04 18:54 | 45.19944 | 47.39047 | 32953 ft | 496 kts | 346° |
| 2026-05-04 18:54 | 45.26693 | 47.37011 | 32952 ft | 496 kts | 346° |
| 2026-05-04 18:55 | 45.33397 | 47.34974 | 32952 ft | 496 kts | 346° |
| 2026-05-04 18:55 | 45.43529 | 47.31896 | 32950 ft | 496 kts | 346° |
| 2026-05-04 18:56 | 45.50284 | 47.29843 | 32953 ft | 496 kts | 346° |
| 2026-05-04 18:56 | 45.56991 | 47.27807 | 32953 ft | 497 kts | 346° |
| 2026-05-04 18:57 | 45.63748 | 47.25704 | 32952 ft | 496 kts | 343° |
| 2026-05-04 18:57 | 45.70085 | 47.22001 | 32954 ft | 493 kts | 332° |
| 2026-05-04 18:58 | 45.76239 | 47.17672 | 32950 ft | 493 kts | 332° |
| 2026-05-04 18:58 | 45.82355 | 47.13358 | 32952 ft | 493 kts | 332° |
| 2026-05-04 18:59 | 45.88501 | 47.09018 | 32953 ft | 493 kts | 332° |
| 2026-05-04 18:59 | 45.94646 | 47.04640 | 32951 ft | 493 kts | 331° |
| 2026-05-04 19:00 | 46.00700 | 47.00016 | 32952 ft | 493 kts | 329° |
| 2026-05-04 19:00 | 46.06700 | 46.95258 | 32952 ft | 493 kts | 330° |
| 2026-05-04 19:01 | 46.12676 | 46.90555 | 32952 ft | 493 kts | 330° |
| 2026-05-04 19:01 | 46.18702 | 46.85857 | 32953 ft | 492 kts | 330° |
| 2026-05-04 19:02 | 46.24807 | 46.81369 | 32962 ft | 493 kts | 334° |
| 2026-05-04 19:02 | 46.31046 | 46.77263 | 32961 ft | 493 kts | 335° |
| 2026-05-04 19:03 | 46.37253 | 46.73222 | 32960 ft | 493 kts | 334° |
| 2026-05-04 19:03 | 46.43470 | 46.69040 | 32956 ft | 493 kts | 334° |
| 2026-05-04 19:04 | 46.49662 | 46.64791 | 32959 ft | 492 kts | 333° |
| 2026-05-04 19:04 | 46.55859 | 46.60524 | 32961 ft | 493 kts | 334° |
| 2026-05-04 19:05 | 46.62059 | 46.56277 | 32972 ft | 492 kts | 334° |
| 2026-05-04 19:05 | 46.68218 | 46.52061 | 32968 ft | 492 kts | 334° |
| 2026-05-04 19:06 | 46.74414 | 46.47806 | 32972 ft | 492 kts | 334° |
| 2026-05-04 19:06 | 46.80598 | 46.43543 | 32974 ft | 491 kts | 333° |
| 2026-05-04 19:07 | 46.86770 | 46.39256 | 32967 ft | 491 kts | 333° |
| 2026-05-04 19:07 | 46.92902 | 46.34996 | 32970 ft | 491 kts | 333° |
| 2026-05-04 19:08 | 46.99075 | 46.30714 | 32977 ft | 491 kts | 333° |
| 2026-05-04 19:08 | 47.05238 | 46.26413 | 32977 ft | 490 kts | 333° |
| 2026-05-04 19:09 | 47.11389 | 46.22103 | 32985 ft | 490 kts | 333° |
| 2026-05-04 19:09 | 47.17535 | 46.17789 | 32981 ft | 489 kts | 333° |
| 2026-05-04 19:10 | 47.23633 | 46.13517 | 32996 ft | 489 kts | 333° |
| 2026-05-04 19:10 | 47.29765 | 46.09195 | 32983 ft | 489 kts | 333° |
| 2026-05-04 19:11 | 47.35890 | 46.04849 | 32983 ft | 488 kts | 333° |
| 2026-05-04 19:11 | 47.42005 | 46.00510 | 33003 ft | 488 kts | 333° |
| 2026-05-04 19:12 | 47.51132 | 45.94068 | 32998 ft | 486 kts | 333° |
| 2026-05-04 19:13 | 47.57235 | 45.89731 | 32999 ft | 487 kts | 333° |
| 2026-05-04 19:13 | 47.63326 | 45.85375 | 32998 ft | 486 kts | 333° |
| 2026-05-04 19:14 | 47.69376 | 45.81043 | 32998 ft | 486 kts | 333° |
| 2026-05-04 19:14 | 47.75465 | 45.76693 | 33004 ft | 486 kts | 333° |
| 2026-05-04 19:15 | 47.81554 | 45.72335 | 33007 ft | 486 kts | 333° |
| 2026-05-04 19:15 | 47.87633 | 45.67960 | 33008 ft | 485 kts | 333° |
| 2026-05-04 19:16 | 47.93710 | 45.63555 | 33007 ft | 485 kts | 333° |
| 2026-05-04 19:16 | 47.99747 | 45.59188 | 33007 ft | 486 kts | 333° |
| 2026-05-04 19:17 | 48.05824 | 45.54785 | 33007 ft | 485 kts | 333° |
| 2026-05-04 19:17 | 48.11886 | 45.50377 | 33014 ft | 484 kts | 333° |
| 2026-05-04 19:18 | 48.17929 | 45.45963 | 33016 ft | 483 kts | 333° |
| 2026-05-04 19:18 | 48.23935 | 45.41566 | 33018 ft | 483 kts | 333° |
| 2026-05-04 19:19 | 48.29973 | 45.37133 | 33017 ft | 482 kts | 333° |
| 2026-05-04 19:19 | 48.35996 | 45.32707 | 33019 ft | 482 kts | 333° |
| 2026-05-04 19:20 | 48.41808 | 45.27769 | 33019 ft | 479 kts | 321° |
| 2026-05-04 19:20 | 48.47069 | 45.21613 | 33027 ft | 478 kts | 321° |
| 2026-05-04 19:21 | 48.52291 | 45.15500 | 33028 ft | 478 kts | 321° |
| 2026-05-04 19:21 | 48.57542 | 45.09344 | 33026 ft | 478 kts | 321° |
| 2026-05-04 19:22 | 48.62783 | 45.03186 | 33025 ft | 477 kts | 321° |
| 2026-05-04 19:22 | 48.68015 | 44.97011 | 33027 ft | 477 kts | 321° |
| 2026-05-04 19:23 | 48.73208 | 44.90868 | 33026 ft | 476 kts | 321° |
| 2026-05-04 19:23 | 48.78428 | 44.84690 | 33026 ft | 476 kts | 321° |
| 2026-05-04 19:24 | 48.83643 | 44.78504 | 33025 ft | 476 kts | 320° |
| 2026-05-04 19:24 | 48.88793 | 44.72203 | 33030 ft | 475 kts | 319° |
| 2026-05-04 19:25 | 48.93837 | 44.65818 | 33029 ft | 475 kts | 319° |
| 2026-05-04 19:25 | 48.98909 | 44.59389 | 33024 ft | 474 kts | 319° |
| 2026-05-04 19:26 | 49.03995 | 44.52991 | 33030 ft | 474 kts | 319° |
| 2026-05-04 19:26 | 49.09083 | 44.46601 | 33026 ft | 474 kts | 319° |
| 2026-05-04 19:27 | 49.14165 | 44.40199 | 33021 ft | 473 kts | 319° |
| 2026-05-04 19:27 | 49.19191 | 44.33824 | 33026 ft | 472 kts | 319° |
| 2026-05-04 19:28 | 49.24236 | 44.27400 | 33025 ft | 472 kts | 319° |
| 2026-05-04 19:28 | 49.29281 | 44.20964 | 33024 ft | 472 kts | 319° |
| 2026-05-04 19:29 | 49.34321 | 44.14527 | 33025 ft | 471 kts | 319° |
| 2026-05-04 19:29 | 49.39314 | 44.08126 | 33023 ft | 471 kts | 318° |
| 2026-05-04 19:30 | 49.44334 | 44.01666 | 33025 ft | 470 kts | 318° |
| 2026-05-04 19:30 | 49.49348 | 43.95215 | 33029 ft | 470 kts | 318° |
| 2026-05-04 19:31 | 49.54354 | 43.88750 | 33025 ft | 470 kts | 318° |
| 2026-05-04 19:31 | 49.59333 | 43.82327 | 33027 ft | 470 kts | 319° |
| 2026-05-04 19:32 | 49.64340 | 43.75855 | 33028 ft | 470 kts | 318° |
| 2026-05-04 19:32 | 49.69344 | 43.69366 | 33030 ft | 470 kts | 318° |
| 2026-05-04 19:33 | 49.74341 | 43.62867 | 33026 ft | 470 kts | 318° |
| 2026-05-04 19:33 | 49.79298 | 43.56394 | 33026 ft | 470 kts | 318° |
| 2026-05-04 19:34 | 49.84289 | 43.49870 | 33026 ft | 470 kts | 318° |
| 2026-05-04 19:34 | 49.89277 | 43.43325 | 33029 ft | 470 kts | 318° |
| 2026-05-04 19:35 | 49.94267 | 43.36759 | 33029 ft | 470 kts | 318° |
| 2026-05-04 19:35 | 49.99226 | 43.30227 | 33024 ft | 470 kts | 318° |
| 2026-05-04 19:36 | 50.04208 | 43.23644 | 33027 ft | 469 kts | 318° |
| 2026-05-04 19:36 | 50.09166 | 43.17047 | 33027 ft | 469 kts | 318° |
| 2026-05-04 19:37 | 50.14122 | 43.10449 | 33028 ft | 469 kts | 318° |
| 2026-05-04 19:37 | 50.19085 | 43.03844 | 33027 ft | 469 kts | 318° |
| 2026-05-04 19:38 | 50.24010 | 42.97265 | 33027 ft | 469 kts | 318° |
| 2026-05-04 19:38 | 50.28957 | 42.90618 | 33018 ft | 469 kts | 318° |
| 2026-05-04 19:39 | 50.33905 | 42.83961 | 33018 ft | 469 kts | 318° |
| 2026-05-04 19:39 | 50.38854 | 42.77300 | 33018 ft | 469 kts | 318° |
| 2026-05-04 19:40 | 50.43765 | 42.70654 | 33016 ft | 470 kts | 318° |
| 2026-05-04 19:40 | 50.48705 | 42.63938 | 33018 ft | 470 kts | 318° |
| 2026-05-04 19:41 | 50.53662 | 42.57254 | 33014 ft | 470 kts | 322° |
| 2026-05-04 19:41 | 50.59055 | 42.51426 | 33017 ft | 471 kts | 325° |
| 2026-05-04 19:42 | 50.64481 | 42.45638 | 33017 ft | 471 kts | 325° |
| 2026-05-04 19:42 | 50.69858 | 42.39865 | 33016 ft | 470 kts | 325° |
| 2026-05-04 19:43 | 50.75258 | 42.34043 | 33016 ft | 470 kts | 325° |
| 2026-05-04 19:43 | 50.80663 | 42.28218 | 33017 ft | 470 kts | 325° |
| 2026-05-04 19:44 | 50.86057 | 42.22371 | 33015 ft | 470 kts | 325° |
| 2026-05-04 19:44 | 50.91407 | 42.16538 | 33017 ft | 470 kts | 325° |
| 2026-05-04 19:45 | 50.96798 | 42.10668 | 33018 ft | 470 kts | 325° |
| 2026-05-04 19:45 | 51.02184 | 42.04801 | 33016 ft | 470 kts | 325° |
| 2026-05-04 19:46 | 51.07564 | 41.98918 | 33017 ft | 469 kts | 325° |
| 2026-05-04 19:46 | 51.12900 | 41.93065 | 33018 ft | 469 kts | 325° |
| 2026-05-04 19:47 | 51.18273 | 41.87152 | 33017 ft | 469 kts | 325° |
| 2026-05-04 19:47 | 51.23634 | 41.81219 | 33017 ft | 469 kts | 325° |
| 2026-05-04 19:48 | 51.28996 | 41.75283 | 33007 ft | 469 kts | 325° |
| 2026-05-04 19:48 | 51.34318 | 41.69377 | 33008 ft | 468 kts | 325° |
| 2026-05-04 19:49 | 51.39658 | 41.63415 | 33008 ft | 468 kts | 325° |
| 2026-05-04 19:49 | 51.44996 | 41.57446 | 33009 ft | 468 kts | 325° |
| 2026-05-04 19:50 | 51.50337 | 41.51461 | 33008 ft | 468 kts | 325° |
| 2026-05-04 19:50 | 51.55666 | 41.45476 | 33007 ft | 467 kts | 325° |
| 2026-05-04 19:51 | 51.60957 | 41.39531 | 32998 ft | 467 kts | 325° |
| 2026-05-04 19:51 | 51.66267 | 41.33526 | 32980 ft | 467 kts | 325° |
| 2026-05-04 19:52 | 51.71590 | 41.27488 | 32978 ft | 468 kts | 325° |
| 2026-05-04 19:52 | 51.76914 | 41.21436 | 32982 ft | 468 kts | 325° |
| 2026-05-04 19:53 | 51.82201 | 41.15412 | 32976 ft | 468 kts | 325° |
| 2026-05-04 19:53 | 51.87518 | 41.09325 | 32996 ft | 468 kts | 325° |
| 2026-05-04 19:54 | 51.92832 | 41.03223 | 32991 ft | 468 kts | 325° |
| 2026-05-04 19:54 | 51.98142 | 40.97121 | 32995 ft | 468 kts | 325° |
| 2026-05-04 19:55 | 52.03447 | 40.91017 | 32983 ft | 466 kts | 326° |
| 2026-05-04 19:55 | 52.04320 | 40.90054 | 32983 ft | 466 kts | 329° |